Golovenchitsy, Baltarusija

06:25 PM +03 on spalio 22, 2017 (GMT +0300)
Grodno | | Change Station

Elev 390 ft 53.63 °N, 23.74 °E | Updated 6 seconds ago

Debesuota
Debesuota
41.7 °F
Feels Like 42 °F
N
2.2
Vėjas nepastovus Vėjas from Pietūs
Gusts 3.8 mph

Šiandien
High -- | Low -- °F
--% Chance of Precip.
Yesterday
High -- | Low -- °F
Precip. -- in
Slėgis 30.04 in
Matomumas 6.2 mylios
Debesys Debesuota 2600 ft
Šaltas vėjas 42 °F
Rasos taškas 33 °F
Drėgmė 72%
Krituliai 0.00 in
Sniego dangos storis Not available.
8:06 AM 6:12 PM
Priešpilnis mėnulis, 8% visible
METAR UMMG 221500Z 15004MPS 9999 BKN026 05/01 Q1017 NOSIG
Slėgis 30.04 in
Matomumas 6.2 mylios
Debesys Debesuota 2600 ft
Šaltas vėjas 42 °F
Rasos taškas 33 °F
Drėgmė 72%
Krituliai 0.00 in
Sniego dangos storis Not available.
8:06 AM 6:12 PM
Priešpilnis mėnulis, 8% visible
METAR UMMG 221500Z 15004MPS 9999 BKN026 05/01 Q1017 NOSIG

Get Severe Weather Alerts

Thanks for signing up!

Be on the lookout for a verification email in your inbox.

You'll start receiving the daily forecast at 6 AM.

×

10-Day Weather Forecast

×

Almanac

Astronomija

Oct. 22, 2017 Rise Set
Vietos laikas
Dienos šviesa
Jūrinė diena
Astronominė diena
Mėnulis
Matomos šviesos trukmė
Dienos ilgis
Tomorrow will be .
, % of the Moon is Illuminated

Šiandienos maksimumai

Country Highs Country Lows

Community

WunderPhotos

Category 6

Welcome to Category 6. This is the collective home for Weather Underground's featured writeups by Dr. Jeff Masters (right), Bob Henson (left), Chris Burt, and other regular contributors.

Nearby

Air Quality

  Air Quality AQ Index Pollutant
Not available.

Sniego danga

Station Depth Elevation

Earthquake Activity

Miestas Distance Mag. Time & Date
Minimum magnitude displayed is 2.5.

Coastal Water Temperatures

Vieta Temperatūra

Stations

Nearby Weather Stations

Station Location Temp Šaltas vėjas Rasos taškas Drėgmė Vėjas Precip. Elev Duomenys papildyti Type